createdAt,value
2018-07-23T00:08:57.169Z,27.5
2018-07-23T00:18:56.417Z,27.5
2018-07-23T00:28:55.654Z,27.6
2018-07-23T00:38:54.902Z,27.6
2018-07-23T00:48:54.153Z,27.5
2018-07-23T00:58:53.387Z,27.5
2018-07-23T01:08:52.630Z,27.5
2018-07-23T01:18:51.874Z,27.5
2018-07-23T01:28:51.119Z,27.5
2018-07-23T01:38:50.361Z,27.5
2018-07-23T01:48:49.605Z,27.4
2018-07-23T01:58:48.850Z,27.5
2018-07-23T02:08:48.093Z,27.5
2018-07-23T02:18:47.337Z,27.5
2018-07-23T02:28:46.582Z,27.5
2018-07-23T02:38:45.823Z,27.6
2018-07-23T02:48:45.069Z,27.5
2018-07-23T02:58:44.307Z,27.4
2018-07-23T03:08:43.552Z,27.5
2018-07-23T03:18:42.799Z,27.5
2018-07-23T03:28:42.038Z,27.4
2018-07-23T03:38:41.274Z,27.3
2018-07-23T03:48:40.518Z,27.3
2018-07-23T03:58:39.762Z,27.2
2018-07-23T04:08:39.005Z,27.1
2018-07-23T04:18:38.248Z,27.1
2018-07-23T04:28:37.491Z,27.1
2018-07-23T04:38:36.732Z,27
2018-07-23T04:48:35.973Z,26.9
2018-07-23T04:58:35.223Z,26.8
2018-07-23T05:08:34.474Z,26.8
2018-07-23T05:18:33.754Z,26.8
2018-07-23T05:28:32.950Z,26.8
2018-07-23T05:38:32.259Z,26.9
2018-07-23T05:48:31.436Z,26.9
2018-07-23T05:58:30.685Z,26.9
2018-07-23T06:08:29.922Z,27
2018-07-23T06:18:29.217Z,27
2018-07-23T06:28:28.411Z,27
2018-07-23T06:38:27.658Z,27.1
2018-07-23T06:48:26.899Z,27.1
2018-07-23T06:58:26.142Z,27.1
2018-07-23T07:08:25.387Z,27.1
2018-07-23T07:18:24.688Z,27.1
2018-07-23T07:28:23.876Z,27.1
2018-07-23T07:38:23.171Z,27.1
2018-07-23T07:48:22.366Z,27.2
2018-07-23T07:58:21.614Z,27.2
2018-07-23T08:08:20.856Z,27.3
2018-07-23T08:18:20.099Z,27.3
2018-07-23T08:28:19.344Z,27.3
2018-07-23T08:38:18.591Z,27.3
2018-07-23T08:48:17.834Z,27.3
2018-07-23T08:58:17.080Z,27.3
2018-07-23T09:08:16.326Z,27.3
2018-07-23T09:18:15.578Z,27.3
2018-07-23T09:28:14.818Z,27.4
2018-07-23T09:38:14.111Z,27.4
2018-07-23T09:48:13.308Z,27.4
2018-07-23T09:58:12.559Z,27.4
2018-07-23T10:08:11.801Z,27.5
2018-07-23T10:18:11.044Z,27.4
2018-07-23T10:28:10.293Z,27.4
2018-07-23T10:38:09.589Z,27.5
2018-07-23T10:48:08.783Z,27.4
2018-07-23T10:58:08.029Z,27.4
2018-07-23T11:08:07.274Z,27.5
2018-07-23T11:18:06.527Z,27.4
2018-07-23T11:28:05.769Z,27.4
2018-07-23T11:38:05.014Z,27.4
2018-07-23T11:48:04.256Z,27.4
2018-07-23T11:58:03.507Z,27.4
2018-07-23T12:08:02.749Z,27.4
2018-07-23T12:18:01.994Z,27.4
2018-07-23T12:28:01.238Z,27.4
2018-07-23T12:38:00.484Z,27.4
2018-07-23T12:47:59.729Z,27.4
2018-07-23T12:57:58.976Z,27.4
2018-07-23T13:07:58.218Z,27.4
2018-07-23T13:17:57.463Z,27.5
2018-07-23T13:27:56.707Z,27.5
2018-07-23T13:37:55.977Z,27.5
2018-07-23T13:47:55.201Z,27.5
2018-07-23T13:57:54.498Z,27.5
2018-07-23T14:07:53.689Z,27.5
2018-07-23T14:17:52.934Z,27.5
2018-07-23T14:27:52.179Z,27.5
2018-07-23T14:37:51.428Z,27.5
2018-07-23T14:47:50.668Z,27.5
2018-07-23T14:57:49.957Z,27.5
2018-07-23T15:07:49.165Z,27.5
2018-07-23T15:17:48.408Z,27.4
2018-07-23T15:27:47.650Z,27.3
2018-07-23T15:37:46.897Z,27.1
2018-07-23T15:47:46.204Z,27.1
2018-07-23T15:57:45.393Z,27
2018-07-23T16:07:44.635Z,27.1
2018-07-23T16:17:43.881Z,27.1
2018-07-23T16:27:43.130Z,27.1
2018-07-23T16:37:42.374Z,27.2
2018-07-23T16:47:41.618Z,27.3
2018-07-23T16:57:40.865Z,27.3
2018-07-23T17:07:40.111Z,27.3
2018-07-23T17:17:39.357Z,27.3
2018-07-23T17:27:38.604Z,27.4
2018-07-23T17:37:37.854Z,27.4
2018-07-23T17:47:37.102Z,27.4
2018-07-23T17:57:36.350Z,27.4
2018-07-23T18:07:35.597Z,27.4
2018-07-23T18:17:34.843Z,27.4
2018-07-23T18:27:34.094Z,27.4
2018-07-23T18:37:33.340Z,27.4
2018-07-23T18:47:32.588Z,27.4
2018-07-23T18:57:31.833Z,27.4
2018-07-23T19:07:31.079Z,27.4
2018-07-23T19:17:30.325Z,27.4
2018-07-23T19:27:29.582Z,27.3
2018-07-23T19:37:28.818Z,27.3
2018-07-23T19:47:28.066Z,27.3
2018-07-23T19:57:27.315Z,27.2
2018-07-23T20:07:26.558Z,27.3
2018-07-23T20:17:25.808Z,27.4
2018-07-23T20:27:25.052Z,27.4
2018-07-23T20:37:24.296Z,27.4
2018-07-23T20:47:23.544Z,27.4
2018-07-23T20:57:22.788Z,27.5
2018-07-23T21:07:22.043Z,27.6
2018-07-23T21:17:21.281Z,27.5
2018-07-23T21:27:20.527Z,27.5
2018-07-23T21:37:19.770Z,27.6
2018-07-23T21:47:19.020Z,27.6
2018-07-23T21:57:18.258Z,27.6
2018-07-23T22:07:17.502Z,27.6
2018-07-23T22:17:16.751Z,27.6
2018-07-23T22:27:15.992Z,27.6
2018-07-23T22:37:15.234Z,27.6
2018-07-23T22:47:14.479Z,27.6
2018-07-23T22:57:13.727Z,27.6
2018-07-23T23:07:12.966Z,27.6
2018-07-23T23:17:12.212Z,27.6
2018-07-23T23:27:11.459Z,27.6
2018-07-23T23:37:10.701Z,27.6
2018-07-23T23:47:09.952Z,27.6
2018-07-23T23:57:09.187Z,27.6
